sensor_id;sensor_type;location;lat;lon;timestamp;P1;durP1;ratioP1;P2;durP2;ratioP2
54263;SDS011;40178;53.042;6.406;2023-09-12T00:01:04;28.65;;;20.52;;
54263;SDS011;40178;53.042;6.406;2023-09-12T00:03:30;28.27;;;20.35;;
54263;SDS011;40178;53.042;6.406;2023-09-12T00:05:57;32.35;;;22.75;;
54263;SDS011;40178;53.042;6.406;2023-09-12T00:08:24;31.13;;;21.67;;
54263;SDS011;40178;53.042;6.406;2023-09-12T00:13:26;32.97;;;23.52;;
54263;SDS011;40178;53.042;6.406;2023-09-12T00:15:51;30.02;;;23.08;;
54263;SDS011;40178;53.042;6.406;2023-09-12T00:18:17;30.98;;;21.70;;
54263;SDS011;40178;53.042;6.406;2023-09-12T00:20:42;27.88;;;20.42;;
54263;SDS011;40178;53.042;6.406;2023-09-12T00:23:08;27.38;;;21.02;;
54263;SDS011;40178;53.042;6.406;2023-09-12T00:25:33;28.83;;;20.80;;
54263;SDS011;40178;53.042;6.406;2023-09-12T00:27:59;27.45;;;19.55;;
54263;SDS011;40178;53.042;6.406;2023-09-12T00:30:25;28.65;;;20.50;;
54263;SDS011;40178;53.042;6.406;2023-09-12T00:32:50;30.45;;;20.77;;
54263;SDS011;40178;53.042;6.406;2023-09-12T00:35:16;32.20;;;22.15;;
54263;SDS011;40178;53.042;6.406;2023-09-12T00:37:41;29.88;;;21.90;;
54263;SDS011;40178;53.042;6.406;2023-09-12T00:40:07;31.17;;;21.17;;
54263;SDS011;40178;53.042;6.406;2023-09-12T00:42:33;31.27;;;21.33;;
54263;SDS011;40178;53.042;6.406;2023-09-12T00:44:58;32.20;;;21.85;;
54263;SDS011;40178;53.042;6.406;2023-09-12T00:47:24;29.42;;;20.50;;
54263;SDS011;40178;53.042;6.406;2023-09-12T00:49:52;31.08;;;20.58;;
54263;SDS011;40178;53.042;6.406;2023-09-12T00:52:20;29.10;;;20.00;;
54263;SDS011;40178;53.042;6.406;2023-09-12T00:54:47;28.95;;;21.25;;
54263;SDS011;40178;53.042;6.406;2023-09-12T00:57:13;27.63;;;20.45;;
54263;SDS011;40178;53.042;6.406;2023-09-12T00:59:39;29.33;;;20.08;;
54263;SDS011;40178;53.042;6.406;2023-09-12T01:02:05;28.77;;;20.70;;
54263;SDS011;40178;53.042;6.406;2023-09-12T01:04:31;25.88;;;19.63;;
54263;SDS011;40178;53.042;6.406;2023-09-12T01:06:58;27.65;;;19.17;;
54263;SDS011;40178;53.042;6.406;2023-09-12T01:09:24;28.23;;;19.85;;
54263;SDS011;40178;53.042;6.406;2023-09-12T01:11:49;27.70;;;20.50;;
54263;SDS011;40178;53.042;6.406;2023-09-12T01:14:15;30.10;;;19.88;;
54263;SDS011;40178;53.042;6.406;2023-09-12T01:16:41;27.08;;;19.38;;
54263;SDS011;40178;53.042;6.406;2023-09-12T01:19:06;34.03;;;19.20;;
54263;SDS011;40178;53.042;6.406;2023-09-12T01:29:38;32.15;;;21.67;;
54263;SDS011;40178;53.042;6.406;2023-09-12T01:32:05;28.55;;;20.90;;
54263;SDS011;40178;53.042;6.406;2023-09-12T01:34:31;31.08;;;21.10;;
54263;SDS011;40178;53.042;6.406;2023-09-12T01:36:56;29.83;;;20.27;;
54263;SDS011;40178;53.042;6.406;2023-09-12T01:39:22;30.38;;;22.05;;
54263;SDS011;40178;53.042;6.406;2023-09-12T01:41:48;29.27;;;20.17;;
54263;SDS011;40178;53.042;6.406;2023-09-12T01:44:15;29.58;;;21.25;;
54263;SDS011;40178;53.042;6.406;2023-09-12T01:46:43;35.10;;;21.55;;
54263;SDS011;40178;53.042;6.406;2023-09-12T01:49:09;26.60;;;18.77;;
54263;SDS011;40178;53.042;6.406;2023-09-12T01:51:37;30.75;;;20.42;;
54263;SDS011;40178;53.042;6.406;2023-09-12T01:54:03;38.85;;;19.60;;
54263;SDS011;40178;53.042;6.406;2023-09-12T01:56:29;27.25;;;19.45;;
54263;SDS011;40178;53.042;6.406;2023-09-12T01:58:56;29.63;;;21.63;;
54263;SDS011;40178;53.042;6.406;2023-09-12T02:01:22;30.67;;;21.15;;
54263;SDS011;40178;53.042;6.406;2023-09-12T02:03:49;29.58;;;19.88;;
54263;SDS011;40178;53.042;6.406;2023-09-12T02:06:15;39.92;;;20.90;;
54263;SDS011;40178;53.042;6.406;2023-09-12T02:08:41;47.08;;;21.83;;
54263;SDS011;40178;53.042;6.406;2023-09-12T02:11:06;28.42;;;18.45;;
54263;SDS011;40178;53.042;6.406;2023-09-12T02:13:32;36.97;;;19.00;;
54263;SDS011;40178;53.042;6.406;2023-09-12T02:16:01;193.85;;;27.70;;
54263;SDS011;40178;53.042;6.406;2023-09-12T02:18:28;247.55;;;27.55;;
54263;SDS011;40178;53.042;6.406;2023-09-12T02:20:54;78.75;;;21.90;;
54263;SDS011;40178;53.042;6.406;2023-09-12T02:23:19;35.83;;;19.92;;
54263;SDS011;40178;53.042;6.406;2023-09-12T02:25:45;31.40;;;19.55;;
54263;SDS011;40178;53.042;6.406;2023-09-12T02:28:10;32.22;;;20.52;;
54263;SDS011;40178;53.042;6.406;2023-09-12T02:30:39;28.15;;;18.60;;
54263;SDS011;40178;53.042;6.406;2023-09-12T02:33:07;30.73;;;18.58;;
54263;SDS011;40178;53.042;6.406;2023-09-12T02:35:33;29.80;;;19.35;;
54263;SDS011;40178;53.042;6.406;2023-09-12T02:37:58;24.52;;;17.48;;
54263;SDS011;40178;53.042;6.406;2023-09-12T02:40:24;32.33;;;21.10;;
54263;SDS011;40178;53.042;6.406;2023-09-12T02:42:50;37.92;;;23.35;;
54263;SDS011;40178;53.042;6.406;2023-09-12T02:45:17;35.55;;;22.08;;
54263;SDS011;40178;53.042;6.406;2023-09-12T02:47:42;37.38;;;23.67;;
54263;SDS011;40178;53.042;6.406;2023-09-12T02:50:08;35.22;;;23.13;;
54263;SDS011;40178;53.042;6.406;2023-09-12T02:52:34;37.13;;;23.42;;
54263;SDS011;40178;53.042;6.406;2023-09-12T02:55:00;38.80;;;22.98;;
54263;SDS011;40178;53.042;6.406;2023-09-12T02:57:26;38.58;;;23.65;;
54263;SDS011;40178;53.042;6.406;2023-09-12T02:59:51;36.72;;;23.00;;
54263;SDS011;40178;53.042;6.406;2023-09-12T03:02:17;38.28;;;22.88;;
54263;SDS011;40178;53.042;6.406;2023-09-12T03:04:42;40.15;;;23.98;;
54263;SDS011;40178;53.042;6.406;2023-09-12T03:07:08;39.22;;;24.05;;
54263;SDS011;40178;53.042;6.406;2023-09-12T03:09:33;35.25;;;22.30;;
54263;SDS011;40178;53.042;6.406;2023-09-12T03:12:02;38.50;;;23.55;;
54263;SDS011;40178;53.042;6.406;2023-09-12T03:14:29;32.90;;;21.33;;
54263;SDS011;40178;53.042;6.406;2023-09-12T03:16:54;37.17;;;22.65;;
54263;SDS011;40178;53.042;6.406;2023-09-12T03:19:21;31.90;;;21.33;;
54263;SDS011;40178;53.042;6.406;2023-09-12T03:21:46;33.92;;;22.52;;
54263;SDS011;40178;53.042;6.406;2023-09-12T03:24:12;34.03;;;23.27;;
54263;SDS011;40178;53.042;6.406;2023-09-12T03:26:38;37.60;;;23.27;;
54263;SDS011;40178;53.042;6.406;2023-09-12T03:29:03;35.75;;;22.50;;
54263;SDS011;40178;53.042;6.406;2023-09-12T03:31:29;35.70;;;23.10;;
54263;SDS011;40178;53.042;6.406;2023-09-12T03:33:55;36.40;;;22.52;;
54263;SDS011;40178;53.042;6.406;2023-09-12T03:36:21;39.40;;;23.58;;
54263;SDS011;40178;53.042;6.406;2023-09-12T03:38:47;35.67;;;22.10;;
54263;SDS011;40178;53.042;6.406;2023-09-12T03:41:13;34.45;;;20.98;;
54263;SDS011;40178;53.042;6.406;2023-09-12T03:43:38;32.20;;;21.73;;
54263;SDS011;40178;53.042;6.406;2023-09-12T03:46:04;35.92;;;21.15;;
54263;SDS011;40178;53.042;6.406;2023-09-12T03:48:30;37.80;;;21.50;;
54263;SDS011;40178;53.042;6.406;2023-09-12T03:50:56;54.83;;;21.58;;
54263;SDS011;40178;53.042;6.406;2023-09-12T03:53:22;38.22;;;19.85;;
54263;SDS011;40178;53.042;6.406;2023-09-12T03:55:48;73.80;;;21.77;;
54263;SDS011;40178;53.042;6.406;2023-09-12T03:58:14;96.90;;;22.95;;
54263;SDS011;40178;53.042;6.406;2023-09-12T04:00:39;40.10;;;19.58;;
54263;SDS011;40178;53.042;6.406;2023-09-12T04:03:05;38.92;;;21.63;;
54263;SDS011;40178;53.042;6.406;2023-09-12T04:05:30;44.75;;;19.67;;
54263;SDS011;40178;53.042;6.406;2023-09-12T04:07:56;142.10;;;24.90;;
54263;SDS011;40178;53.042;6.406;2023-09-12T04:10:22;303.25;;;31.55;;
54263;SDS011;40178;53.042;6.406;2023-09-12T04:12:47;135.27;;;21.35;;
54263;SDS011;40178;53.042;6.406;2023-09-12T04:15:13;65.70;;;19.40;;
54263;SDS011;40178;53.042;6.406;2023-09-12T04:17:39;39.35;;;16.20;;
54263;SDS011;40178;53.042;6.406;2023-09-12T04:20:04;26.65;;;16.17;;
54263;SDS011;40178;53.042;6.406;2023-09-12T04:22:30;71.10;;;22.85;;
54263;SDS011;40178;53.042;6.406;2023-09-12T04:24:56;63.90;;;20.17;;
54263;SDS011;40178;53.042;6.406;2023-09-12T04:27:24;231.38;;;27.70;;
54263;SDS011;40178;53.042;6.406;2023-09-12T04:29:50;71.93;;;17.02;;
54263;SDS011;40178;53.042;6.406;2023-09-12T04:32:16;125.15;;;22.30;;
54263;SDS011;40178;53.042;6.406;2023-09-12T04:34:48;40.60;;;17.23;;
54263;SDS011;40178;53.042;6.406;2023-09-12T04:37:16;28.08;;;17.15;;
54263;SDS011;40178;53.042;6.406;2023-09-12T04:39:42;28.10;;;17.08;;
54263;SDS011;40178;53.042;6.406;2023-09-12T04:42:08;29.25;;;18.33;;
54263;SDS011;40178;53.042;6.406;2023-09-12T04:44:39;30.63;;;19.35;;
54263;SDS011;40178;53.042;6.406;2023-09-12T04:47:05;43.33;;;23.50;;
54263;SDS011;40178;53.042;6.406;2023-09-12T04:49:31;96.55;;;28.63;;
54263;SDS011;40178;53.042;6.406;2023-09-12T04:51:56;99.63;;;28.38;;
54263;SDS011;40178;53.042;6.406;2023-09-12T04:54:22;103.95;;;28.50;;
54263;SDS011;40178;53.042;6.406;2023-09-12T04:56:48;173.43;;;31.25;;
54263;SDS011;40178;53.042;6.406;2023-09-12T04:59:13;102.78;;;30.75;;
54263;SDS011;40178;53.042;6.406;2023-09-12T05:01:39;78.90;;;26.50;;
54263;SDS011;40178;53.042;6.406;2023-09-12T05:04:05;112.88;;;29.05;;
54263;SDS011;40178;53.042;6.406;2023-09-12T05:06:31;95.05;;;28.70;;
54263;SDS011;40178;53.042;6.406;2023-09-12T05:08:56;106.75;;;30.08;;
54263;SDS011;40178;53.042;6.406;2023-09-12T05:11:22;94.47;;;30.58;;
54263;SDS011;40178;53.042;6.406;2023-09-12T05:13:49;100.05;;;28.05;;
54263;SDS011;40178;53.042;6.406;2023-09-12T05:16:15;67.40;;;28.48;;
54263;SDS011;40178;53.042;6.406;2023-09-12T05:18:40;78.93;;;31.67;;
54263;SDS011;40178;53.042;6.406;2023-09-12T05:21:06;98.05;;;28.63;;
54263;SDS011;40178;53.042;6.406;2023-09-12T05:23:31;69.70;;;27.85;;
54263;SDS011;40178;53.042;6.406;2023-09-12T05:25:57;77.45;;;29.10;;
54263;SDS011;40178;53.042;6.406;2023-09-12T05:28:23;77.00;;;27.88;;
54263;SDS011;40178;53.042;6.406;2023-09-12T05:30:48;71.68;;;26.65;;
54263;SDS011;40178;53.042;6.406;2023-09-12T05:33:14;103.95;;;29.45;;
54263;SDS011;40178;53.042;6.406;2023-09-12T05:35:40;69.55;;;27.30;;
54263;SDS011;40178;53.042;6.406;2023-09-12T05:38:05;60.75;;;29.42;;
54263;SDS011;40178;53.042;6.406;2023-09-12T05:40:31;56.65;;;27.02;;
54263;SDS011;40178;53.042;6.406;2023-09-12T05:42:56;73.50;;;29.35;;
54263;SDS011;40178;53.042;6.406;2023-09-12T05:45:22;76.57;;;29.60;;
54263;SDS011;40178;53.042;6.406;2023-09-12T05:47:48;76.07;;;29.67;;
54263;SDS011;40178;53.042;6.406;2023-09-12T05:50:15;75.55;;;28.38;;
54263;SDS011;40178;53.042;6.406;2023-09-12T05:52:41;60.90;;;28.67;;
54263;SDS011;40178;53.042;6.406;2023-09-12T05:55:08;65.35;;;28.38;;
54263;SDS011;40178;53.042;6.406;2023-09-12T05:57:33;94.90;;;30.42;;
54263;SDS011;40178;53.042;6.406;2023-09-12T05:59:59;87.70;;;32.20;;
54263;SDS011;40178;53.042;6.406;2023-09-12T06:02:26;65.22;;;28.55;;
54263;SDS011;40178;53.042;6.406;2023-09-12T06:04:52;76.00;;;29.70;;
54263;SDS011;40178;53.042;6.406;2023-09-12T06:07:18;77.28;;;28.45;;
54263;SDS011;40178;53.042;6.406;2023-09-12T06:09:44;86.65;;;31.50;;
54263;SDS011;40178;53.042;6.406;2023-09-12T06:12:10;66.88;;;28.17;;
54263;SDS011;40178;53.042;6.406;2023-09-12T06:14:35;80.28;;;32.35;;
54263;SDS011;40178;53.042;6.406;2023-09-12T06:17:01;64.38;;;30.67;;
54263;SDS011;40178;53.042;6.406;2023-09-12T06:19:26;77.05;;;31.50;;
54263;SDS011;40178;53.042;6.406;2023-09-12T06:21:52;87.35;;;31.60;;
54263;SDS011;40178;53.042;6.406;2023-09-12T06:24:21;68.50;;;29.00;;
54263;SDS011;40178;53.042;6.406;2023-09-12T06:26:47;78.25;;;30.50;;
54263;SDS011;40178;53.042;6.406;2023-09-12T06:29:13;72.95;;;32.88;;
54263;SDS011;40178;53.042;6.406;2023-09-12T06:31:39;64.50;;;29.75;;
54263;SDS011;40178;53.042;6.406;2023-09-12T06:34:06;76.65;;;30.67;;
54263;SDS011;40178;53.042;6.406;2023-09-12T06:36:32;67.88;;;31.33;;
54263;SDS011;40178;53.042;6.406;2023-09-12T06:38:58;63.00;;;30.75;;
54263;SDS011;40178;53.042;6.406;2023-09-12T06:41:25;60.42;;;29.08;;
54263;SDS011;40178;53.042;6.406;2023-09-12T06:43:51;66.55;;;30.65;;
54263;SDS011;40178;53.042;6.406;2023-09-12T06:46:17;63.55;;;29.80;;
54263;SDS011;40178;53.042;6.406;2023-09-12T06:48:43;62.88;;;32.17;;
54263;SDS011;40178;53.042;6.406;2023-09-12T06:51:10;67.45;;;31.00;;
54263;SDS011;40178;53.042;6.406;2023-09-12T06:53:35;61.40;;;30.52;;
54263;SDS011;40178;53.042;6.406;2023-09-12T06:56:04;61.58;;;31.00;;
54263;SDS011;40178;53.042;6.406;2023-09-12T06:58:30;59.88;;;30.08;;
54263;SDS011;40178;53.042;6.406;2023-09-12T07:00:55;60.80;;;29.40;;
54263;SDS011;40178;53.042;6.406;2023-09-12T07:03:25;54.97;;;29.48;;
54263;SDS011;40178;53.042;6.406;2023-09-12T07:05:51;60.03;;;30.88;;
54263;SDS011;40178;53.042;6.406;2023-09-12T07:08:17;54.30;;;28.92;;
54263;SDS011;40178;53.042;6.406;2023-09-12T07:10:45;63.70;;;29.45;;
54263;SDS011;40178;53.042;6.406;2023-09-12T07:13:11;57.92;;;28.88;;
54263;SDS011;40178;53.042;6.406;2023-09-12T07:15:37;59.13;;;28.27;;
54263;SDS011;40178;53.042;6.406;2023-09-12T07:18:02;54.85;;;28.63;;
54263;SDS011;40178;53.042;6.406;2023-09-12T07:20:30;60.70;;;30.27;;
54263;SDS011;40178;53.042;6.406;2023-09-12T07:22:56;57.15;;;28.90;;
54263;SDS011;40178;53.042;6.406;2023-09-12T07:25:21;54.63;;;27.23;;
54263;SDS011;40178;53.042;6.406;2023-09-12T07:27:49;50.42;;;27.33;;
54263;SDS011;40178;53.042;6.406;2023-09-12T07:30:15;54.72;;;27.90;;
54263;SDS011;40178;53.042;6.406;2023-09-12T07:32:40;48.08;;;27.40;;
54263;SDS011;40178;53.042;6.406;2023-09-12T07:35:06;52.20;;;27.88;;
54263;SDS011;40178;53.042;6.406;2023-09-12T07:37:32;47.03;;;26.75;;
54263;SDS011;40178;53.042;6.406;2023-09-12T07:39:57;46.63;;;25.13;;
54263;SDS011;40178;53.042;6.406;2023-09-12T07:42:23;48.58;;;27.40;;
54263;SDS011;40178;53.042;6.406;2023-09-12T07:44:49;46.03;;;25.40;;
54263;SDS011;40178;53.042;6.406;2023-09-12T07:47:15;45.75;;;25.67;;
54263;SDS011;40178;53.042;6.406;2023-09-12T07:49:41;48.53;;;28.23;;
54263;SDS011;40178;53.042;6.406;2023-09-12T07:52:07;45.28;;;25.98;;
54263;SDS011;40178;53.042;6.406;2023-09-12T07:54:32;48.42;;;26.90;;
54263;SDS011;40178;53.042;6.406;2023-09-12T07:56:58;44.83;;;26.13;;
54263;SDS011;40178;53.042;6.406;2023-09-12T07:59:24;42.28;;;25.08;;
54263;SDS011;40178;53.042;6.406;2023-09-12T08:01:50;45.17;;;26.08;;
54263;SDS011;40178;53.042;6.406;2023-09-12T08:04:16;44.00;;;25.88;;
54263;SDS011;40178;53.042;6.406;2023-09-12T08:06:42;45.33;;;25.13;;
54263;SDS011;40178;53.042;6.406;2023-09-12T08:09:08;46.13;;;26.08;;
54263;SDS011;40178;53.042;6.406;2023-09-12T08:11:35;45.95;;;24.75;;
54263;SDS011;40178;53.042;6.406;2023-09-12T08:14:01;49.10;;;25.98;;
54263;SDS011;40178;53.042;6.406;2023-09-12T08:16:26;51.47;;;27.20;;
54263;SDS011;40178;53.042;6.406;2023-09-12T08:18:52;47.38;;;26.92;;
54263;SDS011;40178;53.042;6.406;2023-09-12T08:21:17;49.65;;;29.33;;
54263;SDS011;40178;53.042;6.406;2023-09-12T08:23:43;49.47;;;28.58;;
54263;SDS011;40178;53.042;6.406;2023-09-12T08:26:09;49.63;;;27.90;;
54263;SDS011;40178;53.042;6.406;2023-09-12T08:28:35;48.35;;;27.55;;
54263;SDS011;40178;53.042;6.406;2023-09-12T08:31:01;48.58;;;26.17;;
54263;SDS011;40178;53.042;6.406;2023-09-12T08:33:27;47.85;;;27.77;;
54263;SDS011;40178;53.042;6.406;2023-09-12T08:35:55;54.53;;;27.98;;
54263;SDS011;40178;53.042;6.406;2023-09-12T08:38:21;54.00;;;29.75;;
54263;SDS011;40178;53.042;6.406;2023-09-12T08:40:49;51.50;;;30.58;;
54263;SDS011;40178;53.042;6.406;2023-09-12T08:43:16;48.10;;;28.30;;
54263;SDS011;40178;53.042;6.406;2023-09-12T08:45:42;48.72;;;28.05;;
54263;SDS011;40178;53.042;6.406;2023-09-12T08:48:11;52.75;;;29.02;;
54263;SDS011;40178;53.042;6.406;2023-09-12T08:50:37;51.47;;;28.65;;
54263;SDS011;40178;53.042;6.406;2023-09-12T08:53:03;51.80;;;28.48;;
54263;SDS011;40178;53.042;6.406;2023-09-12T08:55:29;48.60;;;28.48;;
54263;SDS011;40178;53.042;6.406;2023-09-12T08:57:57;48.92;;;27.23;;
54263;SDS011;40178;53.042;6.406;2023-09-12T09:00:23;48.83;;;26.58;;
54263;SDS011;40178;53.042;6.406;2023-09-12T09:02:50;46.85;;;27.20;;
54263;SDS011;40178;53.042;6.406;2023-09-12T09:05:16;48.85;;;26.80;;
54263;SDS011;40178;53.042;6.406;2023-09-12T09:07:45;49.70;;;26.77;;
54263;SDS011;40178;53.042;6.406;2023-09-12T09:10:13;45.80;;;27.42;;
54263;SDS011;40178;53.042;6.406;2023-09-12T09:12:42;47.13;;;25.73;;
54263;SDS011;40178;53.042;6.406;2023-09-12T09:17:55;44.28;;;26.30;;
54263;SDS011;40178;53.042;6.406;2023-09-12T09:20:25;46.97;;;27.27;;
54263;SDS011;40178;53.042;6.406;2023-09-12T09:22:58;42.90;;;24.92;;
54263;SDS011;40178;53.042;6.406;2023-09-12T09:25:25;43.75;;;25.50;;
54263;SDS011;40178;53.042;6.406;2023-09-12T09:27:51;40.63;;;24.90;;
54263;SDS011;40178;53.042;6.406;2023-09-12T09:30:16;44.00;;;24.73;;
54263;SDS011;40178;53.042;6.406;2023-09-12T09:32:43;42.30;;;25.13;;
54263;SDS011;40178;53.042;6.406;2023-09-12T09:35:10;42.08;;;25.42;;
54263;SDS011;40178;53.042;6.406;2023-09-12T09:37:37;41.65;;;25.08;;
54263;SDS011;40178;53.042;6.406;2023-09-12T09:40:06;37.75;;;23.40;;
54263;SDS011;40178;53.042;6.406;2023-09-12T09:42:33;40.85;;;25.55;;
54263;SDS011;40178;53.042;6.406;2023-09-12T09:44:58;42.13;;;24.95;;
54263;SDS011;40178;53.042;6.406;2023-09-12T09:47:25;42.10;;;24.42;;
54263;SDS011;40178;53.042;6.406;2023-09-12T09:49:51;37.83;;;23.92;;
54263;SDS011;40178;53.042;6.406;2023-09-12T09:52:17;39.65;;;24.10;;
54263;SDS011;40178;53.042;6.406;2023-09-12T09:54:51;40.58;;;24.67;;
54263;SDS011;40178;53.042;6.406;2023-09-12T09:57:17;40.97;;;24.25;;
54263;SDS011;40178;53.042;6.406;2023-09-12T09:59:42;40.33;;;25.58;;
54263;SDS011;40178;53.042;6.406;2023-09-12T10:02:17;40.60;;;24.53;;
54263;SDS011;40178;53.042;6.406;2023-09-12T10:04:46;39.20;;;23.83;;
54263;SDS011;40178;53.042;6.406;2023-09-12T10:07:13;37.25;;;24.88;;
54263;SDS011;40178;53.042;6.406;2023-09-12T10:09:39;37.83;;;24.27;;
54263;SDS011;40178;53.042;6.406;2023-09-12T10:12:07;34.33;;;22.95;;
54263;SDS011;40178;53.042;6.406;2023-09-12T10:14:33;35.28;;;22.65;;
54263;SDS011;40178;53.042;6.406;2023-09-12T10:17:01;34.50;;;22.15;;
54263;SDS011;40178;53.042;6.406;2023-09-12T10:19:42;36.20;;;22.30;;
54263;SDS011;40178;53.042;6.406;2023-09-12T10:24:46;33.75;;;23.33;;
54263;SDS011;40178;53.042;6.406;2023-09-12T10:27:14;35.50;;;23.02;;
54263;SDS011;40178;53.042;6.406;2023-09-12T10:29:41;33.83;;;22.80;;
54263;SDS011;40178;53.042;6.406;2023-09-12T10:32:07;37.22;;;24.30;;
54263;SDS011;40178;53.042;6.406;2023-09-12T10:34:34;34.08;;;24.75;;
54263;SDS011;40178;53.042;6.406;2023-09-12T10:37:01;35.97;;;22.98;;
54263;SDS011;40178;53.042;6.406;2023-09-12T10:39:29;34.72;;;22.60;;
54263;SDS011;40178;53.042;6.406;2023-09-12T10:41:57;38.03;;;24.38;;
54263;SDS011;40178;53.042;6.406;2023-09-12T10:44:24;37.50;;;24.65;;
54263;SDS011;40178;53.042;6.406;2023-09-12T10:46:50;38.40;;;23.08;;
54263;SDS011;40178;53.042;6.406;2023-09-12T10:49:18;37.20;;;23.40;;
54263;SDS011;40178;53.042;6.406;2023-09-12T10:51:45;35.60;;;22.15;;
54263;SDS011;40178;53.042;6.406;2023-09-12T10:54:15;36.72;;;22.27;;
54263;SDS011;40178;53.042;6.406;2023-09-12T10:56:47;35.08;;;22.65;;
54263;SDS011;40178;53.042;6.406;2023-09-12T10:59:30;34.35;;;22.50;;
54263;SDS011;40178;53.042;6.406;2023-09-12T11:05:00;30.45;;;21.20;;
54263;SDS011;40178;53.042;6.406;2023-09-12T11:12:45;33.85;;;20.70;;
54263;SDS011;40178;53.042;6.406;2023-09-12T11:15:11;27.88;;;19.13;;
54263;SDS011;40178;53.042;6.406;2023-09-12T11:17:45;28.88;;;19.15;;
54263;SDS011;40178;53.042;6.406;2023-09-12T11:20:12;25.47;;;17.87;;
54263;SDS011;40178;53.042;6.406;2023-09-12T11:22:40;26.63;;;17.75;;
54263;SDS011;40178;53.042;6.406;2023-09-12T11:25:23;26.08;;;18.50;;
54263;SDS011;40178;53.042;6.406;2023-09-12T11:30:22;27.90;;;16.73;;
54263;SDS011;40178;53.042;6.406;2023-09-12T11:32:53;23.33;;;14.90;;
54263;SDS011;40178;53.042;6.406;2023-09-12T11:35:25;22.45;;;13.07;;
54263;SDS011;40178;53.042;6.406;2023-09-12T11:37:56;20.52;;;12.57;;
54263;SDS011;40178;53.042;6.406;2023-09-12T11:40:24;23.60;;;13.38;;
54263;SDS011;40178;53.042;6.406;2023-09-12T11:43:06;18.98;;;12.50;;
54263;SDS011;40178;53.042;6.406;2023-09-12T11:45:31;20.05;;;12.82;;
54263;SDS011;40178;53.042;6.406;2023-09-12T11:47:58;19.85;;;12.52;;
54263;SDS011;40178;53.042;6.406;2023-09-12T11:50:30;23.55;;;15.85;;
54263;SDS011;40178;53.042;6.406;2023-09-12T11:53:05;20.70;;;14.10;;
54263;SDS011;40178;53.042;6.406;2023-09-12T11:55:54;21.40;;;13.27;;
54263;SDS011;40178;53.042;6.406;2023-09-12T11:58:23;19.20;;;11.77;;
54263;SDS011;40178;53.042;6.406;2023-09-12T12:00:51;17.92;;;13.20;;
54263;SDS011;40178;53.042;6.406;2023-09-12T12:03:18;15.60;;;10.25;;
54263;SDS011;40178;53.042;6.406;2023-09-12T12:05:45;16.70;;;10.55;;
54263;SDS011;40178;53.042;6.406;2023-09-12T12:08:11;18.73;;;11.50;;
54263;SDS011;40178;53.042;6.406;2023-09-12T12:10:38;17.52;;;12.02;;
54263;SDS011;40178;53.042;6.406;2023-09-12T12:13:05;17.98;;;11.63;;
54263;SDS011;40178;53.042;6.406;2023-09-12T12:15:31;19.50;;;11.98;;
54263;SDS011;40178;53.042;6.406;2023-09-12T12:17:57;17.90;;;11.95;;
54263;SDS011;40178;53.042;6.406;2023-09-12T12:20:23;15.13;;;10.55;;
54263;SDS011;40178;53.042;6.406;2023-09-12T12:22:49;16.58;;;10.38;;
54263;SDS011;40178;53.042;6.406;2023-09-12T12:25:17;18.50;;;9.27;;
54263;SDS011;40178;53.042;6.406;2023-09-12T12:27:43;12.45;;;8.07;;
54263;SDS011;40178;53.042;6.406;2023-09-12T12:30:10;12.18;;;7.82;;
54263;SDS011;40178;53.042;6.406;2023-09-12T12:32:43;12.32;;;8.00;;
54263;SDS011;40178;53.042;6.406;2023-09-12T12:35:20;14.82;;;8.43;;
54263;SDS011;40178;53.042;6.406;2023-09-12T12:37:48;12.88;;;7.65;;
54263;SDS011;40178;53.042;6.406;2023-09-12T12:40:14;14.10;;;7.22;;
54263;SDS011;40178;53.042;6.406;2023-09-12T12:42:42;11.90;;;7.78;;
54263;SDS011;40178;53.042;6.406;2023-09-12T12:45:12;15.18;;;9.27;;
54263;SDS011;40178;53.042;6.406;2023-09-12T12:47:39;12.43;;;8.02;;
54263;SDS011;40178;53.042;6.406;2023-09-12T12:50:12;12.50;;;6.78;;
54263;SDS011;40178;53.042;6.406;2023-09-12T12:52:39;10.70;;;6.20;;
54263;SDS011;40178;53.042;6.406;2023-09-12T12:55:09;13.02;;;7.53;;
54263;SDS011;40178;53.042;6.406;2023-09-12T12:57:40;16.02;;;7.43;;
54263;SDS011;40178;53.042;6.406;2023-09-12T13:00:13;9.60;;;6.63;;
54263;SDS011;40178;53.042;6.406;2023-09-12T13:02:41;9.18;;;6.03;;
54263;SDS011;40178;53.042;6.406;2023-09-12T13:05:27;9.25;;;5.55;;
54263;SDS011;40178;53.042;6.406;2023-09-12T13:07:55;10.18;;;4.97;;
54263;SDS011;40178;53.042;6.406;2023-09-12T13:10:21;12.07;;;6.50;;
54263;SDS011;40178;53.042;6.406;2023-09-12T13:12:48;8.13;;;4.50;;
54263;SDS011;40178;53.042;6.406;2023-09-12T13:15:14;9.85;;;5.13;;
54263;SDS011;40178;53.042;6.406;2023-09-12T13:17:42;10.02;;;5.32;;
54263;SDS011;40178;53.042;6.406;2023-09-12T13:20:08;10.85;;;5.07;;
54263;SDS011;40178;53.042;6.406;2023-09-12T13:22:34;8.07;;;4.75;;
54263;SDS011;40178;53.042;6.406;2023-09-12T13:25:00;7.45;;;3.88;;
54263;SDS011;40178;53.042;6.406;2023-09-12T13:27:27;7.63;;;3.15;;
54263;SDS011;40178;53.042;6.406;2023-09-12T13:29:53;7.72;;;2.95;;
54263;SDS011;40178;53.042;6.406;2023-09-12T13:32:18;6.72;;;3.35;;
54263;SDS011;40178;53.042;6.406;2023-09-12T13:34:44;7.95;;;3.83;;
54263;SDS011;40178;53.042;6.406;2023-09-12T13:37:10;8.60;;;3.90;;
54263;SDS011;40178;53.042;6.406;2023-09-12T13:39:36;7.55;;;3.58;;
54263;SDS011;40178;53.042;6.406;2023-09-12T13:42:01;8.35;;;3.90;;
54263;SDS011;40178;53.042;6.406;2023-09-12T13:44:29;7.75;;;3.60;;
54263;SDS011;40178;53.042;6.406;2023-09-12T13:46:55;6.80;;;3.53;;
54263;SDS011;40178;53.042;6.406;2023-09-12T13:49:20;6.07;;;3.85;;
54263;SDS011;40178;53.042;6.406;2023-09-12T13:51:46;8.38;;;4.65;;
54263;SDS011;40178;53.042;6.406;2023-09-12T13:54:12;7.22;;;4.00;;
54263;SDS011;40178;53.042;6.406;2023-09-12T13:56:43;12.43;;;4.57;;
54263;SDS011;40178;53.042;6.406;2023-09-12T13:59:09;8.68;;;4.53;;
54263;SDS011;40178;53.042;6.406;2023-09-12T14:01:36;9.77;;;4.97;;
54263;SDS011;40178;53.042;6.406;2023-09-12T14:04:02;8.63;;;4.82;;
54263;SDS011;40178;53.042;6.406;2023-09-12T14:06:28;8.95;;;5.10;;
54263;SDS011;40178;53.042;6.406;2023-09-12T14:08:54;10.18;;;5.18;;
54263;SDS011;40178;53.042;6.406;2023-09-12T14:11:20;8.00;;;4.78;;
54263;SDS011;40178;53.042;6.406;2023-09-12T14:13:45;11.60;;;5.90;;
54263;SDS011;40178;53.042;6.406;2023-09-12T14:16:11;9.70;;;6.03;;
54263;SDS011;40178;53.042;6.406;2023-09-12T14:18:37;12.10;;;6.10;;
54263;SDS011;40178;53.042;6.406;2023-09-12T14:21:02;9.18;;;5.40;;
54263;SDS011;40178;53.042;6.406;2023-09-12T14:23:29;9.55;;;5.65;;
54263;SDS011;40178;53.042;6.406;2023-09-12T14:25:54;8.15;;;4.40;;
54263;SDS011;40178;53.042;6.406;2023-09-12T14:28:20;10.05;;;5.32;;
54263;SDS011;40178;53.042;6.406;2023-09-12T14:30:46;9.38;;;5.20;;
54263;SDS011;40178;53.042;6.406;2023-09-12T14:33:13;9.00;;;5.60;;
54263;SDS011;40178;53.042;6.406;2023-09-12T14:35:39;9.73;;;4.53;;
54263;SDS011;40178;53.042;6.406;2023-09-12T14:38:06;8.63;;;4.60;;
54263;SDS011;40178;53.042;6.406;2023-09-12T14:40:32;11.75;;;5.18;;
54263;SDS011;40178;53.042;6.406;2023-09-12T14:42:57;7.80;;;4.82;;
54263;SDS011;40178;53.042;6.406;2023-09-12T14:45:23;10.57;;;6.03;;
54263;SDS011;40178;53.042;6.406;2023-09-12T14:47:50;9.73;;;5.20;;